createdAt,value
2023-10-02T00:00:43.548Z,2.00
2023-10-02T00:03:11.652Z,1.92
2023-10-02T00:05:51.557Z,1.65
2023-10-02T00:08:38.616Z,2.28
2023-10-02T00:11:31.982Z,2.10
2023-10-02T00:14:19.880Z,2.03
2023-10-02T00:17:05.617Z,1.83
2023-10-02T00:19:39.711Z,2.30
2023-10-02T00:22:07.264Z,1.85
2023-10-02T00:24:42.017Z,1.75
2023-10-02T00:27:10.810Z,1.92
2023-10-02T00:29:59.178Z,2.00
2023-10-02T00:32:35.642Z,2.15
2023-10-02T00:35:04.329Z,2.05
2023-10-02T00:37:53.287Z,1.77
2023-10-02T00:40:26.326Z,2.05
2023-10-02T00:43:00.272Z,2.22
2023-10-02T00:45:39.749Z,1.65
2023-10-02T00:48:26.081Z,2.00
2023-10-02T00:51:01.436Z,2.12
2023-10-02T00:53:41.225Z,2.00
2023-10-02T00:56:25.366Z,1.75
2023-10-02T00:59:01.556Z,1.92
2023-10-02T01:01:31.078Z,2.20
2023-10-02T01:04:13.155Z,1.80
2023-10-02T01:07:04.080Z,1.65
2023-10-02T01:09:31.832Z,1.98
2023-10-02T01:11:59.759Z,1.87
2023-10-02T01:14:49.775Z,1.70
2023-10-02T01:17:23.750Z,2.20
2023-10-02T01:19:54.718Z,1.83
2023-10-02T01:22:27.889Z,2.40
2023-10-02T01:25:17.838Z,1.87
2023-10-02T01:27:49.338Z,1.70
2023-10-02T01:30:19.919Z,2.08
2023-10-02T01:33:23.005Z,1.60
2023-10-02T01:35:56.509Z,1.70
2023-10-02T01:38:33.308Z,1.85
2023-10-02T01:41:11.639Z,1.67
2023-10-02T01:43:45.743Z,1.70
2023-10-02T01:46:23.741Z,1.73
2023-10-02T01:48:52.334Z,2.20
2023-10-02T01:51:22.478Z,1.60
2023-10-02T01:53:52.672Z,1.85
2023-10-02T01:56:21.457Z,1.90
2023-10-02T01:58:52.475Z,1.90
2023-10-02T02:01:22.586Z,2.50
2023-10-02T02:03:52.002Z,2.10
2023-10-02T02:06:22.588Z,1.98
2023-10-02T02:08:54.411Z,2.15
2023-10-02T02:11:24.181Z,2.08
2023-10-02T02:13:53.169Z,2.37
2023-10-02T02:16:40.095Z,2.28
2023-10-02T02:19:09.201Z,1.75
2023-10-02T02:21:37.564Z,1.80
2023-10-02T02:24:08.262Z,1.90
2023-10-02T02:26:40.501Z,2.03
2023-10-02T02:29:28.098Z,1.62
2023-10-02T02:31:56.744Z,2.50
2023-10-02T02:34:25.030Z,1.77
2023-10-02T02:36:55.640Z,2.20
2023-10-02T02:39:24.325Z,2.17
2023-10-02T02:42:10.312Z,2.12
2023-10-02T02:44:47.590Z,1.65
2023-10-02T02:47:17.378Z,2.15
2023-10-02T02:49:50.457Z,1.87
2023-10-02T02:52:28.230Z,1.92
2023-10-02T02:55:01.429Z,2.00
2023-10-02T02:57:32.585Z,2.37
2023-10-02T03:00:22.687Z,2.20
2023-10-02T03:02:53.975Z,2.60
2023-10-02T03:05:24.139Z,2.20
2023-10-02T03:07:56.064Z,1.77
2023-10-02T03:10:25.374Z,1.90
2023-10-02T03:12:55.195Z,2.60
2023-10-02T03:15:46.325Z,2.10
2023-10-02T03:18:24.834Z,2.30
2023-10-02T03:20:53.535Z,1.42
2023-10-02T03:23:21.406Z,2.00
2023-10-02T03:25:49.142Z,1.70
2023-10-02T03:28:34.795Z,1.77
2023-10-02T03:31:02.522Z,2.37
2023-10-02T03:33:32.876Z,2.12
2023-10-02T03:36:10.592Z,2.22
2023-10-02T03:38:45.357Z,1.67
2023-10-02T03:41:14.954Z,2.58
2023-10-02T03:43:47.787Z,2.65
2023-10-02T03:46:37.232Z,1.92
2023-10-02T03:49:07.559Z,2.00
2023-10-02T03:51:38.120Z,1.98
2023-10-02T03:54:20.139Z,2.30
2023-10-02T03:56:50.436Z,1.87
2023-10-02T03:59:24.159Z,2.20
2023-10-02T04:01:51.946Z,2.20
2023-10-02T04:04:20.349Z,2.50
2023-10-02T04:06:48.796Z,2.00
2023-10-02T04:09:19.180Z,2.30
2023-10-02T04:11:47.118Z,2.30
2023-10-02T04:14:24.300Z,2.33
2023-10-02T04:17:10.149Z,2.35
2023-10-02T04:19:44.405Z,2.62
2023-10-02T04:22:23.286Z,2.00
2023-10-02T04:25:00.386Z,2.55
2023-10-02T04:27:45.576Z,4.43
2023-10-02T04:30:14.948Z,1.87
2023-10-02T04:32:53.398Z,1.98
2023-10-02T04:35:39.320Z,2.42
2023-10-02T04:38:10.432Z,2.37
2023-10-02T04:40:39.388Z,2.20
2023-10-02T04:43:20.751Z,2.70
2023-10-02T04:46:09.780Z,2.12
2023-10-02T04:48:41.007Z,2.10
2023-10-02T04:51:13.441Z,2.00
2023-10-02T04:53:47.091Z,2.83
2023-10-02T04:56:20.560Z,2.17
2023-10-02T05:01:36.280Z,2.72
2023-10-02T05:04:04.867Z,2.47
2023-10-02T05:06:51.395Z,2.17
2023-10-02T05:09:26.302Z,3.10
2023-10-02T05:11:56.943Z,3.30
2023-10-02T05:14:31.189Z,2.83
2023-10-02T05:17:21.623Z,2.47
2023-10-02T05:20:02.338Z,3.58
2023-10-02T05:22:32.385Z,2.92
2023-10-02T05:25:01.472Z,2.70
2023-10-02T05:27:31.384Z,2.97
2023-10-02T05:30:14.042Z,2.97
2023-10-02T05:32:42.398Z,3.25
2023-10-02T05:35:15.998Z,3.25
2023-10-02T05:37:47.028Z,3.08
2023-10-02T05:40:20.591Z,3.05
2023-10-02T05:43:10.516Z,3.33
2023-10-02T05:45:46.770Z,2.58
2023-10-02T05:48:29.143Z,3.05
2023-10-02T05:50:58.546Z,4.05
2023-10-02T05:53:27.702Z,3.35
2023-10-02T05:55:58.748Z,3.67
2023-10-02T05:58:33.103Z,3.67
2023-10-02T06:01:08.075Z,3.72
2023-10-02T06:03:38.474Z,4.55
2023-10-02T06:06:22.776Z,3.15
2023-10-02T06:09:13.972Z,2.75
2023-10-02T06:12:01.175Z,3.12
2023-10-02T06:14:29.076Z,2.58
2023-10-02T06:16:59.557Z,2.42
2023-10-02T06:19:26.696Z,2.60
2023-10-02T06:22:00.257Z,2.30
2023-10-02T06:24:30.359Z,2.50
2023-10-02T06:27:15.042Z,2.22
2023-10-02T06:29:48.580Z,2.45
2023-10-02T06:32:25.203Z,2.33
2023-10-02T06:34:52.823Z,2.35
2023-10-02T06:37:25.977Z,2.12
2023-10-02T06:40:08.269Z,2.55
2023-10-02T06:42:49.453Z,3.20
2023-10-02T06:45:22.179Z,3.30
2023-10-02T06:47:50.358Z,4.95
2023-10-02T06:50:32.583Z,5.32
2023-10-02T06:53:00.689Z,5.40
2023-10-02T06:55:34.073Z,5.37
2023-10-02T06:58:04.118Z,4.37
2023-10-02T07:00:49.834Z,5.10
2023-10-02T07:03:19.172Z,4.50
2023-10-02T07:05:46.672Z,4.95
2023-10-02T07:08:20.319Z,5.20
2023-10-02T07:10:49.431Z,4.62
2023-10-02T07:13:24.766Z,4.78
2023-10-02T07:15:58.043Z,4.72
2023-10-02T07:18:39.346Z,4.82
2023-10-02T07:21:09.154Z,4.17
2023-10-02T07:23:40.131Z,4.53
2023-10-02T07:26:15.944Z,4.70
2023-10-02T07:28:51.795Z,3.65
2023-10-02T07:31:23.079Z,4.37
2023-10-02T07:33:55.906Z,3.62
2023-10-02T07:36:27.808Z,4.55
2023-10-02T07:38:55.884Z,4.60
2023-10-02T07:41:27.162Z,3.90
2023-10-02T07:44:08.394Z,4.95
2023-10-02T07:46:37.930Z,3.58
2023-10-02T07:49:06.772Z,3.70
2023-10-02T07:51:41.125Z,4.12
2023-10-02T07:54:08.933Z,4.00
2023-10-02T07:56:37.171Z,4.40
2023-10-02T07:59:05.425Z,4.00
2023-10-02T08:01:35.473Z,3.40
2023-10-02T08:04:04.093Z,3.65
2023-10-02T08:06:38.083Z,4.15
2023-10-02T08:09:26.119Z,4.05
2023-10-02T08:11:54.926Z,3.85
2023-10-02T08:14:43.048Z,3.60
2023-10-02T08:17:31.468Z,3.70
2023-10-02T08:20:17.354Z,3.83
2023-10-02T08:22:49.382Z,3.53
2023-10-02T08:25:17.656Z,3.78
2023-10-02T08:27:46.152Z,2.83
2023-10-02T08:30:32.105Z,3.60
2023-10-02T08:33:13.734Z,3.10
2023-10-02T08:35:59.599Z,2.85
2023-10-02T08:38:27.964Z,2.62
2023-10-02T08:41:00.479Z,4.45
2023-10-02T08:43:31.049Z,3.00
2023-10-02T08:45:59.071Z,3.30
2023-10-02T08:48:26.954Z,3.10
2023-10-02T08:50:58.848Z,3.65
2023-10-02T08:53:27.498Z,3.30
2023-10-02T08:56:22.707Z,3.67
2023-10-02T08:59:12.098Z,3.60
2023-10-02T09:01:39.473Z,2.42
2023-10-02T09:04:28.680Z,2.95
2023-10-02T09:07:00.906Z,3.40
2023-10-02T09:09:37.461Z,3.25
2023-10-02T09:12:10.090Z,2.67
2023-10-02T09:14:41.614Z,3.25
2023-10-02T09:17:18.304Z,3.30
2023-10-02T09:19:54.432Z,2.83
2023-10-02T09:22:24.426Z,2.30
2023-10-02T09:25:27.955Z,2.45
2023-10-02T09:28:05.500Z,2.72
2023-10-02T09:30:37.148Z,2.60
2023-10-02T09:33:17.211Z,2.10
2023-10-02T09:36:49.414Z,2.37
2023-10-02T09:38:47.613Z,2.67
2023-10-02T09:41:16.969Z,2.17
2023-10-02T09:43:45.432Z,3.97
2023-10-02T09:46:17.472Z,2.58
2023-10-02T09:48:53.147Z,2.70
2023-10-02T09:51:27.610Z,2.05
2023-10-02T09:54:07.187Z,2.72
2023-10-02T09:57:07.112Z,2.67
2023-10-02T09:59:49.310Z,2.42
2023-10-02T10:02:24.486Z,2.90
2023-10-02T10:05:23.744Z,2.42
2023-10-02T10:07:59.875Z,3.05
2023-10-02T10:10:49.423Z,2.58
2023-10-02T10:13:47.913Z,3.35
2023-10-02T10:16:35.353Z,2.25
2023-10-02T10:19:08.312Z,2.60
2023-10-02T10:21:57.885Z,2.22
2023-10-02T10:25:21.258Z,2.70
2023-10-02T10:28:05.954Z,3.95
2023-10-02T10:30:42.423Z,2.30
2023-10-02T10:33:12.871Z,2.42
2023-10-02T10:35:53.311Z,2.12
2023-10-02T10:38:28.200Z,2.70
2023-10-02T10:41:01.973Z,2.53
2023-10-02T10:43:45.415Z,2.30
2023-10-02T10:46:19.083Z,2.45
2023-10-02T10:48:50.034Z,2.58
2023-10-02T10:51:23.579Z,2.25
2023-10-02T10:54:01.851Z,2.50
2023-10-02T10:56:29.703Z,2.60
2023-10-02T10:59:12.296Z,2.47
2023-10-02T11:02:11.331Z,2.08
2023-10-02T11:04:50.402Z,2.67
2023-10-02T11:07:24.198Z,2.40
2023-10-02T11:10:17.644Z,2.37
2023-10-02T11:13:01.050Z,3.22
2023-10-02T11:15:47.384Z,2.75
2023-10-02T11:18:20.319Z,2.25
2023-10-02T11:20:52.825Z,3.53
2023-10-02T11:23:41.944Z,2.75
2023-10-02T11:26:15.302Z,1.90
2023-10-02T11:28:46.050Z,2.30
2023-10-02T11:31:33.482Z,2.25
2023-10-02T11:34:31.818Z,2.40
2023-10-02T11:36:57.269Z,2.20
2023-10-02T11:39:34.962Z,2.20
2023-10-02T11:42:07.170Z,2.20
2023-10-02T11:44:34.979Z,2.47
2023-10-02T11:47:03.020Z,2.25
2023-10-02T11:49:37.456Z,1.98
2023-10-02T11:52:05.868Z,3.05
2023-10-02T11:54:43.141Z,2.40
2023-10-02T11:57:13.857Z,2.47
2023-10-02T11:59:44.591Z,3.10
2023-10-02T12:02:12.752Z,1.95
2023-10-02T12:04:41.612Z,1.98
2023-10-02T12:07:11.287Z,2.20
2023-10-02T12:09:39.701Z,2.45
2023-10-02T12:12:12.529Z,2.12
2023-10-02T12:14:44.079Z,2.35
2023-10-02T12:17:16.163Z,4.78
2023-10-02T12:19:46.686Z,2.08
2023-10-02T12:22:14.583Z,2.25
2023-10-02T12:24:42.369Z,2.03
2023-10-02T12:27:13.303Z,1.95
2023-10-02T12:29:41.813Z,2.08
2023-10-02T12:32:11.561Z,2.10
2023-10-02T12:34:42.675Z,2.40
2023-10-02T12:37:11.205Z,1.70
2023-10-02T12:39:38.871Z,2.00
2023-10-02T12:42:06.430Z,2.10
2023-10-02T12:44:38.355Z,1.80
2023-10-02T12:47:06.442Z,1.87
2023-10-02T12:49:36.245Z,2.00
2023-10-02T12:52:03.826Z,1.90
2023-10-02T12:54:31.615Z,1.95
2023-10-02T12:57:00.937Z,2.15
2023-10-02T12:59:28.964Z,1.83
2023-10-02T13:01:57.228Z,2.00
2023-10-02T13:04:25.563Z,2.03
2023-10-02T13:06:54.900Z,2.00
2023-10-02T13:09:22.588Z,1.80
2023-10-02T13:11:52.561Z,2.05
2023-10-02T13:14:20.708Z,2.05
2023-10-02T13:16:50.015Z,2.15
2023-10-02T13:19:18.659Z,2.28
2023-10-02T13:21:53.498Z,2.35
2023-10-02T13:26:55.915Z,2.53
2023-10-02T13:29:25.387Z,1.98
2023-10-02T13:31:53.434Z,2.03
2023-10-02T13:34:21.878Z,2.35
2023-10-02T13:36:49.815Z,2.25
2023-10-02T13:39:19.199Z,2.28
2023-10-02T13:41:47.142Z,2.00
2023-10-02T13:44:19.161Z,2.08
2023-10-02T13:46:49.446Z,2.42
2023-10-02T13:49:20.702Z,1.95
2023-10-02T13:51:49.030Z,1.98
2023-10-02T13:54:16.611Z,2.58
2023-10-02T13:56:45.162Z,2.00
2023-10-02T13:59:12.824Z,1.85
2023-10-02T14:01:40.684Z,2.05
2023-10-02T14:04:11.453Z,1.92
2023-10-02T14:06:39.009Z,2.22
2023-10-02T14:09:11.373Z,1.83
2023-10-02T14:11:41.429Z,1.95
2023-10-02T14:14:09.678Z,2.55
2023-10-02T14:16:37.894Z,2.42
2023-10-02T14:19:07.927Z,1.98
2023-10-02T14:21:36.089Z,1.67
2023-10-02T14:24:06.232Z,1.95
2023-10-02T14:26:35.730Z,2.35
2023-10-02T14:29:03.708Z,2.28
2023-10-02T14:31:33.397Z,2.03
2023-10-02T14:34:02.629Z,1.90
2023-10-02T14:36:31.022Z,2.15
2023-10-02T14:38:59.972Z,2.25
2023-10-02T14:41:28.818Z,1.77
2023-10-02T14:43:58.566Z,2.22
2023-10-02T14:46:26.317Z,1.77
2023-10-02T14:48:54.619Z,1.98
2023-10-02T14:51:23.750Z,1.98
2023-10-02T14:53:52.055Z,1.87
2023-10-02T14:56:22.842Z,2.08
2023-10-02T14:58:51.529Z,2.58
2023-10-02T15:01:21.127Z,2.03
2023-10-02T15:03:52.646Z,2.05
2023-10-02T15:06:23.002Z,2.17
2023-10-02T15:08:57.529Z,2.10
2023-10-02T15:11:25.624Z,2.05
2023-10-02T15:13:56.216Z,2.33
2023-10-02T15:16:23.854Z,2.20
2023-10-02T15:18:51.718Z,2.15
2023-10-02T15:21:20.545Z,3.12
2023-10-02T15:23:49.557Z,2.03
2023-10-02T15:26:19.270Z,2.10
2023-10-02T15:28:48.956Z,2.30
2023-10-02T15:31:16.994Z,1.90
2023-10-02T15:33:44.620Z,2.53
2023-10-02T15:36:16.911Z,2.20
2023-10-02T15:38:46.809Z,3.00
2023-10-02T15:41:30.454Z,2.70
2023-10-02T15:43:58.823Z,2.62
2023-10-02T15:46:28.291Z,2.28
2023-10-02T15:48:56.299Z,1.87
2023-10-02T15:51:26.371Z,2.70
2023-10-02T15:53:54.291Z,2.70
2023-10-02T15:56:25.206Z,2.15
2023-10-02T15:58:55.076Z,2.40
2023-10-02T16:01:23.584Z,2.10
2023-10-02T16:03:51.811Z,2.33
2023-10-02T16:06:20.182Z,2.42
2023-10-02T16:08:49.268Z,2.65
2023-10-02T16:11:22.436Z,2.60
2023-10-02T16:13:51.245Z,2.92
2023-10-02T16:16:23.757Z,2.15
2023-10-02T16:18:52.476Z,2.25
2023-10-02T16:21:24.486Z,2.70
2023-10-02T16:23:52.496Z,2.53
2023-10-02T16:26:23.506Z,4.12
2023-10-02T16:28:52.792Z,2.20
2023-10-02T16:31:26.721Z,2.17
2023-10-02T16:33:55.095Z,2.17
2023-10-02T16:36:30.495Z,2.22
2023-10-02T16:41:31.175Z,2.78
2023-10-02T16:43:59.496Z,2.60
2023-10-02T16:46:27.184Z,2.67
2023-10-02T16:48:55.136Z,2.85
2023-10-02T16:51:23.344Z,3.35
2023-10-02T16:53:50.899Z,2.28
2023-10-02T16:56:20.229Z,2.10
2023-10-02T16:58:47.864Z,2.30
2023-10-02T17:01:18.241Z,2.85
2023-10-02T17:03:46.842Z,3.03
2023-10-02T17:06:15.289Z,2.85
2023-10-02T17:08:42.589Z,2.35
2023-10-02T17:11:14.214Z,3.95
2023-10-02T17:13:42.210Z,2.42
2023-10-02T17:16:12.187Z,2.62
2023-10-02T17:18:40.231Z,3.03
2023-10-02T17:21:10.358Z,2.30
2023-10-02T17:23:42.000Z,3.05
2023-10-02T17:26:09.778Z,2.67
2023-10-02T17:28:39.531Z,2.83
2023-10-02T17:31:09.763Z,2.97
2023-10-02T17:33:44.077Z,2.65
2023-10-02T17:36:13.078Z,2.65
2023-10-02T17:38:41.781Z,2.53
2023-10-02T17:41:09.828Z,3.00
2023-10-02T17:43:37.767Z,2.62
2023-10-02T17:46:08.413Z,3.05
2023-10-02T17:48:36.324Z,2.70
2023-10-02T17:51:07.477Z,3.25
2023-10-02T17:53:35.851Z,2.60
2023-10-02T17:56:09.068Z,3.22
2023-10-02T17:58:37.833Z,2.30
2023-10-02T18:01:05.427Z,2.67
2023-10-02T18:03:33.533Z,2.75
2023-10-02T18:06:02.858Z,2.37
2023-10-02T18:08:32.005Z,2.65
2023-10-02T18:10:59.882Z,2.85
2023-10-02T18:13:31.542Z,2.62
2023-10-02T18:15:59.094Z,2.53
2023-10-02T18:18:28.002Z,2.70
2023-10-02T18:20:56.278Z,2.75
2023-10-02T18:23:23.885Z,2.67
2023-10-02T18:25:53.202Z,2.35
2023-10-02T18:28:20.846Z,2.95
2023-10-02T18:30:49.854Z,3.05
2023-10-02T18:33:19.990Z,2.47
2023-10-02T18:35:51.546Z,2.70
2023-10-02T18:38:20.116Z,2.28
2023-10-02T18:40:48.220Z,2.92
2023-10-02T18:43:21.428Z,2.17
2023-10-02T18:45:49.464Z,2.47
2023-10-02T18:48:17.233Z,2.20
2023-10-02T18:50:45.137Z,3.05
2023-10-02T18:53:15.942Z,2.33
2023-10-02T18:55:43.277Z,2.10
2023-10-02T18:58:13.194Z,2.83
2023-10-02T19:00:42.528Z,2.35
2023-10-02T19:03:09.972Z,2.40
2023-10-02T19:05:43.990Z,2.50
2023-10-02T19:08:12.984Z,2.58
2023-10-02T19:10:40.303Z,2.45
2023-10-02T19:13:09.249Z,2.80
2023-10-02T19:15:36.817Z,2.83
2023-10-02T19:18:04.988Z,2.65
2023-10-02T19:20:34.943Z,3.22
2023-10-02T19:23:02.787Z,2.22
2023-10-02T19:25:29.813Z,2.42
2023-10-02T19:27:56.876Z,2.80
2023-10-02T19:30:24.448Z,2.62
2023-10-02T19:32:52.327Z,2.37
2023-10-02T19:35:19.422Z,2.70
2023-10-02T19:37:47.262Z,2.83
2023-10-02T19:40:16.875Z,3.15
2023-10-02T19:42:45.244Z,2.95
2023-10-02T19:45:12.996Z,2.78
2023-10-02T19:47:40.115Z,2.90
2023-10-02T19:50:07.541Z,2.40
2023-10-02T19:52:34.899Z,2.92
2023-10-02T19:55:02.440Z,2.28
2023-10-02T19:57:29.774Z,2.25
2023-10-02T19:59:57.119Z,2.30
2023-10-02T20:02:24.169Z,2.78
2023-10-02T20:04:53.458Z,2.53
2023-10-02T20:07:20.545Z,3.10
2023-10-02T20:09:47.597Z,2.55
2023-10-02T20:12:15.316Z,2.30
2023-10-02T20:14:42.448Z,2.10
2023-10-02T20:17:10.230Z,2.97
2023-10-02T20:19:38.346Z,2.45
2023-10-02T20:22:09.486Z,2.45
2023-10-02T20:24:39.826Z,2.35
2023-10-02T20:27:09.100Z,2.20
2023-10-02T20:29:36.797Z,2.10
2023-10-02T20:32:04.562Z,3.03
2023-10-02T20:34:37.732Z,2.60
2023-10-02T20:37:09.541Z,2.10
2023-10-02T20:39:37.053Z,2.53
2023-10-02T20:42:04.671Z,2.40
2023-10-02T20:44:31.794Z,2.95
2023-10-02T20:47:14.052Z,2.25
2023-10-02T20:49:43.173Z,2.10
2023-10-02T20:52:11.342Z,2.58
2023-10-02T20:54:39.336Z,2.60
2023-10-02T20:57:07.460Z,2.33
2023-10-02T20:59:35.370Z,2.30
2023-10-02T21:02:03.052Z,2.42
2023-10-02T21:04:30.181Z,2.55
2023-10-02T21:06:58.987Z,2.25
2023-10-02T21:09:26.754Z,2.87
2023-10-02T21:11:54.127Z,2.50
2023-10-02T21:14:24.778Z,2.85
2023-10-02T21:16:52.031Z,2.50
2023-10-02T21:19:19.603Z,2.67
2023-10-02T21:21:52.810Z,3.25
2023-10-02T21:24:22.592Z,2.90
2023-10-02T21:26:50.783Z,3.20
2023-10-02T21:29:19.212Z,2.70
2023-10-02T21:31:46.848Z,3.20
2023-10-02T21:34:14.478Z,2.40
2023-10-02T21:36:42.839Z,3.05
2023-10-02T21:39:12.996Z,2.75
2023-10-02T21:41:40.422Z,2.67
2023-10-02T21:44:08.217Z,3.00
2023-10-02T21:46:36.423Z,2.78
2023-10-02T21:49:04.942Z,3.00
2023-10-02T21:51:32.498Z,3.30
2023-10-02T21:54:00.091Z,2.53
2023-10-02T21:56:31.141Z,3.40
2023-10-02T21:58:58.495Z,2.90
2023-10-02T22:04:55.809Z,3.20
2023-10-02T22:07:23.680Z,3.92
2023-10-02T22:09:51.255Z,2.50
2023-10-02T22:12:18.809Z,3.53
2023-10-02T22:14:49.150Z,3.05
2023-10-02T22:17:16.858Z,3.03
2023-10-02T22:19:44.466Z,3.30
2023-10-02T22:22:13.474Z,3.00
2023-10-02T22:24:43.890Z,3.20
2023-10-02T22:27:15.151Z,2.70
2023-10-02T22:29:42.720Z,3.08
2023-10-02T22:32:10.278Z,2.53
2023-10-02T22:34:42.096Z,3.78
2023-10-02T22:37:15.008Z,3.17
2023-10-02T22:39:43.194Z,3.35
2023-10-02T22:42:12.815Z,3.05
2023-10-02T22:44:41.834Z,3.10
2023-10-02T22:47:09.870Z,3.70
2023-10-02T22:49:37.479Z,3.92
2023-10-02T22:52:05.066Z,3.30
2023-10-02T22:54:32.921Z,3.03
2023-10-02T22:57:00.762Z,3.92
2023-10-02T22:59:28.440Z,3.87
2023-10-02T23:02:00.576Z,3.30
2023-10-02T23:04:28.776Z,3.65
2023-10-02T23:06:56.797Z,3.50
2023-10-02T23:09:25.738Z,2.92
2023-10-02T23:11:53.505Z,3.78
2023-10-02T23:14:24.001Z,3.37
2023-10-02T23:16:53.960Z,2.97
2023-10-02T23:19:25.609Z,3.72
2023-10-02T23:21:53.216Z,3.00
2023-10-02T23:24:20.992Z,3.30
2023-10-02T23:26:48.851Z,3.10
2023-10-02T23:29:16.489Z,2.97
2023-10-02T23:31:44.224Z,3.28
2023-10-02T23:34:13.069Z,3.65
2023-10-02T23:36:40.856Z,3.05
2023-10-02T23:39:10.366Z,2.90
2023-10-02T23:41:38.947Z,3.33
2023-10-02T23:44:06.808Z,3.10
2023-10-02T23:46:35.264Z,3.03
2023-10-02T23:49:03.556Z,3.05
2023-10-02T23:51:32.801Z,3.00
2023-10-02T23:54:00.561Z,2.90
2023-10-02T23:56:28.635Z,3.12
2023-10-02T23:58:57.409Z,3.17
